Time;durP1;ratioP1;P1;durP2;ratioP2;P2;SDS_P1;SDS_P2;PMS_P1;PMS_P2;Temp;Humidity;BMP_temperature;BMP_pressure;BME280_temperature;BME280_humidity;BME280_pressure;Samples;Min_cycle;Max_cycle;Signal;HPM_P1;HPM_P2
2023/03/02 00:02:14;;;;;;;37.83;15.85;;;;;;;-1.89;100.00;95405.66;5007308;28;20042;-74
2023/03/02 00:04:46;;;;;;;39.40;15.65;;;;;;;-1.99;100.00;95400.84;5011970;28;20046;-74
2023/03/02 00:07:15;;;;;;;40.58;16.48;;;;;;;-1.96;100.00;95401.25;5013178;28;20390;-74
2023/03/02 00:09:42;;;;;;;34.92;15.98;;;;;;;-1.99;100.00;95406.78;5003322;28;20066;-74
2023/03/02 00:12:07;;;;;;;37.55;15.75;;;;;;;-2.04;100.00;95396.28;5009293;28;20046;-74
2023/03/02 00:14:33;;;;;;;37.00;16.08;;;;;;;-2.05;100.00;95399.84;5017631;28;20050;-74
2023/03/02 00:16:59;;;;;;;36.97;16.65;;;;;;;-2.13;100.00;95389.69;5018269;28;20077;-73
2023/03/02 00:19:24;;;;;;;42.92;16.23;;;;;;;-2.20;100.00;95383.69;5036704;28;20037;-73
2023/03/02 00:21:50;;;;;;;37.25;16.20;;;;;;;-2.19;100.00;95390.47;5031763;28;20032;-74
2023/03/02 00:24:15;;;;;;;34.60;15.52;;;;;;;-2.18;100.00;95392.06;5037038;28;20069;-73
2023/03/02 00:26:41;;;;;;;32.05;15.88;;;;;;;-2.25;100.00;95376.56;5037820;28;20121;-73
2023/03/02 00:29:07;;;;;;;40.03;15.32;;;;;;;-2.22;100.00;95396.00;5038454;28;20033;-74
2023/03/02 00:31:33;;;;;;;38.63;16.85;;;;;;;-2.19;100.00;95400.78;5034995;28;20037;-73
2023/03/02 00:33:58;;;;;;;35.28;14.90;;;;;;;-2.17;100.00;95403.94;5035499;28;20038;-73
2023/03/02 00:36:24;;;;;;;39.65;15.35;;;;;;;-2.24;100.00;95401.34;5037434;28;20029;-73
2023/03/02 00:38:51;;;;;;;33.35;15.80;;;;;;;-2.24;100.00;95400.53;5035880;28;20026;-72
2023/03/02 00:41:20;;;;;;;41.20;16.77;;;;;;;-2.29;100.00;95407.06;5037019;28;20037;-73
2023/03/02 00:43:46;;;;;;;37.63;15.77;;;;;;;-2.29;100.00;95401.91;5025793;28;20068;-74
2023/03/02 00:46:18;;;;;;;36.05;15.77;;;;;;;-2.36;100.00;95411.38;5011740;28;20042;-74
2023/03/02 00:48:44;;;;;;;44.65;16.25;;;;;;;-2.35;100.00;95402.69;5008002;28;20049;-75
2023/03/02 00:51:10;;;;;;;39.63;15.98;;;;;;;-2.32;100.00;95402.28;5009855;28;20046;-74
2023/03/02 00:53:36;;;;;;;41.70;17.52;;;;;;;-2.23;100.00;95404.72;5010299;28;20041;-75
2023/03/02 00:56:02;;;;;;;40.35;17.23;;;;;;;-2.14;100.00;95399.22;5008728;28;20042;-75
2023/03/02 00:58:29;;;;;;;44.47;17.35;;;;;;;-2.01;100.00;95398.47;5009200;28;20116;-75
2023/03/02 01:00:55;;;;;;;48.20;16.58;;;;;;;-1.96;100.00;95390.94;5010662;28;20041;-75
2023/03/02 01:03:21;;;;;;;40.28;16.38;;;;;;;-1.89;100.00;95390.97;5004518;28;20038;-75
2023/03/02 01:05:46;;;;;;;43.83;17.23;;;;;;;-1.89;100.00;95385.03;5010713;28;20449;-75
2023/03/02 01:08:12;;;;;;;37.90;17.08;;;;;;;-1.87;100.00;95383.03;5010179;28;20050;-75
2023/03/02 01:10:39;;;;;;;45.85;16.90;;;;;;;-1.88;100.00;95377.09;5005528;28;20050;-75
2023/03/02 01:13:06;;;;;;;42.78;17.02;;;;;;;-1.94;100.00;95370.91;5009816;28;20041;-74
2023/03/02 01:15:32;;;;;;;38.55;16.98;;;;;;;-1.97;100.00;95370.50;5005976;28;20042;-75
2023/03/02 01:17:59;;;;;;;36.88;16.23;;;;;;;-1.97;100.00;95368.72;5008712;28;20088;-75
2023/03/02 01:20:26;;;;;;;38.83;16.25;;;;;;;-2.03;100.00;95364.31;5005344;28;20602;-75
2023/03/02 01:22:51;;;;;;;38.65;17.08;;;;;;;-2.06;100.00;95362.13;5011415;28;20041;-75
2023/03/02 01:25:17;;;;;;;39.08;16.23;;;;;;;-2.17;100.00;95362.69;5007770;28;20060;-75
2023/03/02 01:27:43;;;;;;;36.42;15.27;;;;;;;-2.17;100.00;95367.84;5012695;28;20636;-75
2023/03/02 01:30:10;;;;;;;33.53;15.57;;;;;;;-2.22;100.00;95365.06;5007840;28;20070;-75
2023/03/02 01:32:35;;;;;;;38.28;16.13;;;;;;;-2.24;100.00;95361.88;5007933;28;20045;-75
2023/03/02 01:35:01;;;;;;;35.67;16.23;;;;;;;-2.32;100.00;95355.88;5011873;28;20038;-75
2023/03/02 01:37:26;;;;;;;32.60;15.20;;;;;;;-2.33;100.00;95350.94;5010207;28;20046;-75
2023/03/02 01:39:52;;;;;;;33.05;14.88;;;;;;;-2.40;100.00;95353.47;5008213;28;20497;-75
2023/03/02 01:42:18;;;;;;;44.53;16.77;;;;;;;-2.42;100.00;95347.72;5013964;28;20125;-74
2023/03/02 01:44:55;;;;;;;36.38;16.00;;;;;;;-2.41;100.00;95340.78;5008231;28;20414;-75
2023/03/02 01:47:27;;;;;;;38.85;15.25;;;;;;;-2.52;100.00;95350.66;5007669;28;20064;-75
2023/03/02 01:50:02;;;;;;;46.75;16.15;;;;;;;-2.52;100.00;95360.16;5008688;28;20442;-75
2023/03/02 01:52:32;;;;;;;34.72;15.25;;;;;;;-2.53;100.00;95348.25;5009434;28;20041;-75
2023/03/02 01:55:02;;;;;;;34.38;15.15;;;;;;;-2.61;100.00;95352.59;5008979;28;20037;-75
2023/03/02 01:57:33;;;;;;;44.83;16.63;;;;;;;-2.61;100.00;95342.28;5006508;28;20046;-75
2023/03/02 02:00:07;;;;;;;37.45;15.93;;;;;;;-2.58;100.00;95348.06;5008322;28;20061;-75
2023/03/02 02:02:34;;;;;;;34.38;15.45;;;;;;;-2.57;100.00;95344.47;5006587;28;20046;-75
2023/03/02 02:05:01;;;;;;;38.80;16.17;;;;;;;-2.66;100.00;95339.50;5008538;28;20521;-75
2023/03/02 02:07:27;;;;;;;34.33;15.88;;;;;;;-2.61;100.00;95337.13;5008741;28;20053;-75
2023/03/02 02:09:55;;;;;;;33.47;14.73;;;;;;;-2.65;100.00;95330.75;5010303;28;20038;-75
2023/03/02 02:12:22;;;;;;;37.10;16.00;;;;;;;-2.68;100.00;95336.31;5000007;28;20042;-75
2023/03/02 02:14:49;;;;;;;38.58;15.43;;;;;;;-2.70;100.00;95333.13;5009715;28;20152;-75
2023/03/02 02:17:16;;;;;;;39.13;15.70;;;;;;;-2.69;100.00;95334.69;5007608;28;20053;-75
2023/03/02 02:19:52;;;;;;;43.00;16.85;;;;;;;-2.71;100.00;95336.69;5011139;28;20038;-75
2023/03/02 02:22:31;;;;;;;36.90;16.65;;;;;;;-2.74;100.00;95336.25;5010991;28;20042;-75
2023/03/02 02:25:02;;;;;;;44.30;17.58;;;;;;;-2.77;100.00;95332.31;5012715;28;20038;-75
2023/03/02 02:27:32;;;;;;;44.70;17.10;;;;;;;-2.77;100.00;95342.59;5014402;28;20053;-75
2023/03/02 02:29:59;;;;;;;40.42;17.35;;;;;;;-2.54;100.00;95338.94;5007198;28;20144;-75
2023/03/02 02:32:33;;;;;;;43.40;17.02;;;;;;;-2.45;100.00;95324.91;5010672;28;20049;-74
2023/03/02 02:35:04;;;;;;;36.28;16.30;;;;;;;-2.44;100.00;95318.78;5013510;28;20458;-75
2023/03/02 02:37:37;;;;;;;38.47;16.50;;;;;;;-2.44;100.00;95326.50;5009907;28;20045;-75
2023/03/02 02:40:06;;;;;;;38.97;15.90;;;;;;;-2.28;100.00;95321.00;5012092;28;20042;-75
2023/03/02 02:42:40;;;;;;;33.20;15.10;;;;;;;-2.10;100.00;95327.41;5010198;28;20049;-75
2023/03/02 02:45:18;;;;;;;37.28;16.27;;;;;;;-2.17;100.00;95319.69;5013935;28;20449;-75
2023/03/02 02:47:44;;;;;;;41.42;17.10;;;;;;;-2.27;100.00;95312.31;5012124;28;20045;-75
2023/03/02 02:50:23;;;;;;;40.72;16.48;;;;;;;-2.17;100.00;95316.28;5008366;28;20092;-75
2023/03/02 02:52:54;;;;;;;37.33;16.23;;;;;;;-2.38;100.00;95318.00;5012832;28;20390;-75
2023/03/02 02:55:22;;;;;;;32.47;15.48;;;;;;;-2.25;100.00;95321.63;5016671;28;20096;-75
2023/03/02 02:57:52;;;;;;;34.08;16.17;;;;;;;-2.29;100.00;95319.41;5008666;28;20045;-75
2023/03/02 03:00:20;;;;;;;34.67;16.33;;;;;;;-2.45;100.00;95319.75;5006882;28;20437;-75
2023/03/02 03:02:52;;;;;;;38.60;16.67;;;;;;;-2.53;100.00;95307.03;5010531;28;20034;-75
2023/03/02 03:05:17;;;;;;;35.35;15.35;;;;;;;-2.30;100.00;95317.84;5014089;28;20525;-75
2023/03/02 03:07:43;;;;;;;38.17;16.60;;;;;;;-2.49;100.00;95318.56;5015787;28;20131;-75
2023/03/02 03:10:25;;;;;;;41.63;17.23;;;;;;;-2.36;100.00;95308.28;5012586;28;20425;-75
2023/03/02 03:12:51;;;;;;;38.40;17.02;;;;;;;-2.24;100.00;95300.81;5008598;28;20041;-75
2023/03/02 03:15:17;;;;;;;36.95;17.00;;;;;;;-2.21;100.00;95309.91;5019623;28;20038;-75
2023/03/02 03:17:52;;;;;;;37.10;16.52;;;;;;;-2.57;100.00;95316.13;5010197;28;20038;-75
2023/03/02 03:20:18;;;;;;;39.35;17.05;;;;;;;-2.38;100.00;95310.28;5009458;28;20113;-75
2023/03/02 03:22:44;;;;;;;36.03;16.52;;;;;;;-2.50;100.00;95307.47;5009788;28;20099;-75
2023/03/02 03:25:14;;;;;;;36.60;16.13;;;;;;;-2.32;100.00;95304.34;5012507;28;20038;-75
2023/03/02 03:27:41;;;;;;;36.30;15.18;;;;;;;-2.23;100.00;95311.91;5003756;28;20076;-75
2023/03/02 03:30:09;;;;;;;40.08;17.95;;;;;;;-2.50;100.00;95311.81;5005644;28;20121;-75
2023/03/02 03:32:35;;;;;;;35.45;16.88;;;;;;;-2.43;100.00;95312.63;5010545;28;20045;-75
2023/03/02 03:35:02;;;;;;;35.95;16.20;;;;;;;-2.32;100.00;95309.50;5007115;28;20038;-75
2023/03/02 03:37:28;;;;;;;34.55;16.60;;;;;;;-2.35;100.00;95302.16;5008409;28;20045;-75
2023/03/02 03:39:53;;;;;;;41.58;16.52;;;;;;;-2.35;100.00;95304.72;5012102;28;20524;-75
2023/03/02 03:42:20;;;;;;;40.45;17.33;;;;;;;-2.40;100.00;95301.91;5008473;28;20072;-75
2023/03/02 03:44:45;;;;;;;41.70;17.33;;;;;;;-2.62;100.00;95309.75;5012035;28;20060;-75
2023/03/02 03:47:11;;;;;;;39.53;17.27;;;;;;;-2.56;100.00;95302.28;5015205;28;20073;-75
2023/03/02 03:49:37;;;;;;;36.25;16.13;;;;;;;-2.45;100.00;95294.00;5012117;28;20409;-75
2023/03/02 03:52:02;;;;;;;32.95;15.85;;;;;;;-2.32;100.00;95303.56;5008544;28;20816;-75
2023/03/02 03:54:28;;;;;;;37.13;16.42;;;;;;;-2.42;100.00;95301.34;5010524;28;20045;-75
2023/03/02 03:56:54;;;;;;;35.33;15.57;;;;;;;-2.35;100.00;95297.00;5010932;28;20433;-75
2023/03/02 03:59:22;;;;;;;39.28;17.30;;;;;;;-2.32;100.00;95303.56;5019070;28;20034;-75
2023/03/02 04:01:55;;;;;;;38.88;16.75;;;;;;;-2.30;100.00;95297.22;5003628;28;20034;-75
2023/03/02 04:04:26;;;;;;;36.08;17.15;;;;;;;-2.37;100.00;95306.72;5005329;28;20413;-75
2023/03/02 04:06:52;;;;;;;36.38;15.85;;;;;;;-2.45;100.00;95299.16;5010482;28;20034;-76
2023/03/02 04:09:18;;;;;;;41.03;17.23;;;;;;;-2.67;100.00;95293.28;5011261;28;20057;-75
2023/03/02 04:11:48;;;;;;;41.08;16.25;;;;;;;-2.83;100.00;95297.78;5008681;28;20041;-75
2023/03/02 04:14:14;;;;;;;34.72;15.57;;;;;;;-2.69;100.00;95303.78;5011338;28;20065;-75
2023/03/02 04:16:40;;;;;;;38.72;17.20;;;;;;;-2.64;100.00;95301.44;5010085;28;20038;-75
2023/03/02 04:19:09;;;;;;;37.70;17.20;;;;;;;-2.69;100.00;95296.06;5010483;28;20100;-75
2023/03/02 04:21:49;;;;;;;41.17;16.27;;;;;;;-2.65;100.00;95289.53;5005904;28;20034;-76
2023/03/02 04:24:16;;;;;;;32.50;14.90;;;;;;;-2.66;100.00;95290.56;5009869;28;20042;-76
2023/03/02 04:26:43;;;;;;;36.72;16.40;;;;;;;-2.50;100.00;95286.84;5010083;28;20045;-76
2023/03/02 04:29:09;;;;;;;38.70;16.67;;;;;;;-2.54;100.00;95295.13;5011430;28;20115;-76
2023/03/02 04:31:35;;;;;;;38.25;16.10;;;;;;;-2.62;100.00;95289.16;5007675;28;20041;-74
2023/03/02 04:34:04;;;;;;;34.08;16.27;;;;;;;-2.67;100.00;95291.53;5003671;28;20046;-74
2023/03/02 04:36:31;;;;;;;38.83;15.50;;;;;;;-2.73;100.00;95297.47;5008273;28;20042;-75
2023/03/02 04:38:57;;;;;;;37.47;15.95;;;;;;;-2.52;100.00;95300.91;5008811;28;20661;-74
2023/03/02 04:41:22;;;;;;;37.83;17.85;;;;;;;-2.53;100.00;95301.88;5010061;28;20041;-74
2023/03/02 04:43:48;;;;;;;34.03;15.98;;;;;;;-2.92;100.00;95298.91;5005452;28;20057;-73
2023/03/02 04:46:20;;;;;;;38.03;16.88;;;;;;;-2.76;100.00;95297.03;5010676;28;20049;-74
2023/03/02 04:48:46;;;;;;;40.97;16.65;;;;;;;-2.73;100.00;95297.47;5010944;28;20057;-74
2023/03/02 04:51:23;;;;;;;43.53;16.35;;;;;;;-2.78;100.00;95294.63;5007201;28;20066;-74
2023/03/02 04:54:01;;;;;;;37.58;15.63;;;;;;;-2.92;100.00;95282.69;5004434;28;20080;-74
2023/03/02 04:56:27;;;;;;;36.15;15.38;;;;;;;-2.66;100.00;95287.97;5009499;28;20042;-74
2023/03/02 04:58:53;;;;;;;34.13;15.77;;;;;;;-2.69;100.00;95297.84;5010577;28;20049;-75
2023/03/02 05:01:19;;;;;;;54.63;18.20;;;;;;;-2.70;100.00;95302.22;5001471;28;20046;-74
2023/03/02 05:03:45;;;;;;;42.15;18.63;;;;;;;-2.80;100.00;95301.78;5008688;28;20125;-74
2023/03/02 05:06:12;;;;;;;41.78;17.50;;;;;;;-2.81;100.00;95295.03;5006628;28;20056;-73
2023/03/02 05:08:37;;;;;;;36.03;16.75;;;;;;;-2.89;100.00;95288.22;5010459;28;20038;-74
2023/03/02 05:11:05;;;;;;;38.65;17.02;;;;;;;-2.79;100.00;95301.59;5009392;28;20773;-74
2023/03/02 05:13:30;;;;;;;39.53;17.58;;;;;;;-2.93;100.00;95296.53;5010005;28;20042;-73
2023/03/02 05:15:57;;;;;;;43.08;18.52;;;;;;;-3.01;100.00;95306.00;5007897;28;20044;-73
2023/03/02 05:18:23;;;;;;;40.53;16.42;;;;;;;-2.85;100.00;95298.97;5010029;28;20041;-74
2023/03/02 05:20:50;;;;;;;44.88;18.40;;;;;;;-3.16;100.00;95302.72;5006145;28;20513;-74
2023/03/02 05:23:22;;;;;;;41.78;17.88;;;;;;;-3.22;100.00;95299.16;5007034;28;20042;-74
2023/03/02 05:25:52;;;;;;;39.22;18.27;;;;;;;-3.14;100.00;95306.72;5002835;28;20035;-74
2023/03/02 05:28:19;;;;;;;46.75;17.60;;;;;;;-3.14;100.00;95301.56;5008202;28;20040;-74
2023/03/02 05:30:46;;;;;;;39.85;17.77;;;;;;;-3.36;100.00;95308.56;5008862;28;20038;-74
2023/03/02 05:33:12;;;;;;;46.70;18.13;;;;;;;-3.22;100.00;95308.63;5007143;28;20042;-74
2023/03/02 05:35:38;;;;;;;44.78;17.75;;;;;;;-3.08;100.00;95310.31;5008730;28;20042;-73
2023/03/02 05:38:04;;;;;;;39.10;15.45;;;;;;;-2.94;100.00;95300.09;5006663;28;20046;-73
2023/03/02 05:40:30;;;;;;;41.92;16.67;;;;;;;-3.06;100.00;95297.25;5011138;28;20042;-74
2023/03/02 05:42:55;;;;;;;44.22;18.35;;;;;;;-3.49;100.00;95303.31;5003775;28;20034;-74
2023/03/02 05:45:30;;;;;;;44.33;18.27;;;;;;;-3.50;100.00;95302.50;5010033;28;20064;-75
2023/03/02 05:47:56;;;;;;;46.53;17.40;;;;;;;-3.45;100.00;95304.50;5015915;28;20550;-75
2023/03/02 05:50:22;;;;;;;40.25;17.33;;;;;;;-3.55;100.00;95298.91;5010412;28;20042;-74
2023/03/02 05:52:49;;;;;;;41.67;18.45;;;;;;;-3.59;100.00;95318.25;5008614;28;20433;-75
2023/03/02 05:55:16;;;;;;;44.17;18.75;;;;;;;-3.67;100.00;95319.19;5009070;28;20037;-74
2023/03/02 05:57:42;;;;;;;46.42;17.13;;;;;;;-3.59;100.00;95310.53;5011864;28;20122;-75
2023/03/02 06:00:09;;;;;;;40.60;17.42;;;;;;;-3.62;100.00;95310.91;5006177;28;20100;-75
2023/03/02 06:02:37;;;;;;;37.22;16.02;;;;;;;-3.60;100.00;95312.31;5018928;28;20034;-76
2023/03/02 06:05:07;;;;;;;39.53;17.08;;;;;;;-3.58;100.00;95317.28;5010179;28;20574;-76
2023/03/02 06:07:32;;;;;;;35.42;16.02;;;;;;;-3.55;100.00;95311.75;5008453;28;20038;-77
2023/03/02 06:09:58;;;;;;;34.97;16.70;;;;;;;-3.61;100.00;95310.72;5003996;28;20053;-75
2023/03/02 06:12:25;;;;;;;40.03;15.65;;;;;;;-3.63;100.00;95302.41;5007825;28;20048;-74
2023/03/02 06:14:50;;;;;;;34.05;16.65;;;;;;;-3.62;100.00;95308.34;5014822;28;20042;-75
2023/03/02 06:17:16;;;;;;;36.63;16.73;;;;;;;-3.66;100.00;95321.56;5009765;28;20042;-78
2023/03/02 06:19:41;;;;;;;36.58;16.35;;;;;;;-3.63;100.00;95311.88;5008201;28;20102;-77
2023/03/02 06:22:07;;;;;;;42.35;16.60;;;;;;;-3.72;100.00;95319.75;5009690;28;20052;-76
2023/03/02 06:24:33;;;;;;;43.65;17.77;;;;;;;-3.73;100.00;95323.28;5011302;28;20052;-75
2023/03/02 06:26:58;;;;;;;47.60;19.40;;;;;;;-3.70;100.00;95322.91;5009732;28;20042;-76
2023/03/02 06:29:24;;;;;;;44.08;17.23;;;;;;;-3.53;100.00;95332.97;5010480;28;20125;-77
2023/03/02 06:31:49;;;;;;;37.22;17.55;;;;;;;-3.51;100.00;95328.41;5011817;28;20045;-80
2023/03/02 06:34:15;;;;;;;43.10;18.08;;;;;;;-3.50;100.00;95328.22;5014827;28;20696;-77
2023/03/02 06:36:40;;;;;;;42.72;18.02;;;;;;;-3.57;100.00;95336.88;5012700;28;20065;-79
2023/03/02 06:39:14;;;;;;;47.60;21.38;;;;;;;-3.40;100.00;95325.34;5012731;28;20046;-78
2023/03/02 06:41:44;;;;;;;46.20;20.13;;;;;;;-3.44;100.00;95326.69;5013741;28;20073;-80
2023/03/02 06:44:11;;;;;;;47.42;21.52;;;;;;;-3.43;100.00;95318.00;5014231;28;20288;-79
2023/03/02 06:46:37;;;;;;;48.42;20.75;;;;;;;-3.38;100.00;95320.78;4995363;28;20115;-80
2023/03/02 06:49:03;;;;;;;53.47;22.02;;;;;;;-3.34;100.00;95319.44;5011577;28;20064;-78
2023/03/02 06:51:29;;;;;;;56.13;23.33;;;;;;;-3.18;100.00;95320.16;5008161;28;20513;-78
2023/03/02 06:53:55;;;;;;;54.90;22.35;;;;;;;-3.08;100.00;95320.63;5009235;28;20552;-77
2023/03/02 06:56:20;;;;;;;48.58;19.98;;;;;;;-3.09;100.00;95324.16;5006924;28;20042;-76
2023/03/02 06:58:46;;;;;;;51.28;22.08;;;;;;;-3.13;100.00;95320.41;5011339;28;20065;-76
2023/03/02 07:01:11;;;;;;;50.35;22.35;;;;;;;-2.94;100.00;95325.84;5002903;28;20413;-76
2023/03/02 07:03:37;;;;;;;58.30;21.73;;;;;;;-2.80;100.00;95317.22;5005150;28;20064;-76
2023/03/02 07:06:03;;;;;;;54.83;21.35;;;;;;;-2.78;100.00;95320.41;5012412;28;20046;-77
2023/03/02 07:08:29;;;;;;;50.38;21.58;;;;;;;-2.75;100.00;95320.00;5011405;28;20061;-70
2023/03/02 07:10:54;;;;;;;47.53;20.15;;;;;;;-2.68;100.00;95323.41;5012057;28;20045;-72
2023/03/02 07:13:20;;;;;;;51.47;20.95;;;;;;;-2.68;100.00;95320.84;5005541;28;20038;-75
2023/03/02 07:15:45;;;;;;;45.70;19.92;;;;;;;-2.33;100.00;95318.25;5015411;28;20434;-76
2023/03/02 07:18:11;;;;;;;50.95;20.35;;;;;;;-2.21;100.00;95325.38;5017447;28;20042;-76
2023/03/02 07:20:37;;;;;;;52.45;21.13;;;;;;;-2.28;100.00;95326.16;5015031;28;20115;-77
2023/03/02 07:23:03;;;;;;;51.33;20.67;;;;;;;-2.28;100.00;95321.00;5012346;28;20042;-77
2023/03/02 07:25:29;;;;;;;49.42;21.50;;;;;;;-2.30;100.00;95328.16;5014794;28;20750;-77
2023/03/02 07:27:55;;;;;;;49.38;21.20;;;;;;;-2.14;100.00;95331.34;5013894;28;20042;-77
2023/03/02 07:30:20;;;;;;;47.67;20.83;;;;;;;-1.97;100.00;95322.31;5005828;28;20042;-76
2023/03/02 07:32:47;;;;;;;49.75;22.38;;;;;;;-1.87;100.00;95326.28;5009266;28;20042;-77
2023/03/02 07:35:12;;;;;;;47.55;20.27;;;;;;;-1.62;100.00;95335.06;5009486;28;20386;-76
2023/03/02 07:37:38;;;;;;;51.67;21.67;;;;;;;-1.44;100.00;95336.25;5012444;28;20060;-76
2023/03/02 07:40:05;;;;;;;48.33;21.80;;;;;;;-1.41;100.00;95335.84;5006587;28;20460;-75
2023/03/02 07:42:32;;;;;;;46.63;20.50;;;;;;;-1.35;100.00;95340.25;5015021;28;20045;-76
2023/03/02 07:44:57;;;;;;;48.97;21.50;;;;;;;-1.29;100.00;95339.44;5012415;28;20616;-77
2023/03/02 07:47:24;;;;;;;55.58;21.95;;;;;;;-1.18;100.00;95345.00;5015662;28;20041;-76
2023/03/02 07:49:49;;;;;;;55.38;21.15;;;;;;;-1.00;100.00;95347.00;5010505;28;20037;-76
2023/03/02 07:52:15;;;;;;;54.65;21.52;;;;;;;-0.94;100.00;95346.97;5012193;28;20041;-77
2023/03/02 07:54:41;;;;;;;48.78;21.42;;;;;;;-0.98;100.00;95350.94;5010541;28;20049;-76
2023/03/02 07:57:06;;;;;;;46.40;20.42;;;;;;;-0.87;100.00;95344.38;5011691;28;20044;-76
2023/03/02 07:59:32;;;;;;;47.80;21.40;;;;;;;-0.84;100.00;95345.78;5005043;28;20046;-76
2023/03/02 08:01:58;;;;;;;47.55;21.00;;;;;;;-0.80;100.00;95349.56;5009595;28;20817;-76
2023/03/02 08:04:24;;;;;;;47.30;20.63;;;;;;;-0.89;100.00;95344.59;5005953;28;20057;-75
2023/03/02 08:06:49;;;;;;;53.20;21.20;;;;;;;-0.84;100.00;95343.19;5011904;28;20038;-76
2023/03/02 08:09:15;;;;;;;48.63;20.92;;;;;;;-0.85;100.00;95344.19;5010531;28;20061;-76
2023/03/02 08:11:41;;;;;;;44.65;19.35;;;;;;;-0.82;100.00;95349.75;5010687;28;20108;-76
2023/03/02 08:14:06;;;;;;;45.00;19.92;;;;;;;-0.76;100.00;95342.97;5009560;28;20509;-76
2023/03/02 08:16:32;;;;;;;45.65;19.80;;;;;;;-0.64;100.00;95356.84;5012199;28;20071;-76
2023/03/02 08:18:58;;;;;;;46.22;20.15;;;;;;;-0.59;100.00;95358.84;5009321;28;20053;-76
2023/03/02 08:21:25;;;;;;;51.28;20.67;;;;;;;-0.39;100.00;95363.94;5010406;28;20046;-76
2023/03/02 08:23:51;;;;;;;41.17;19.08;;;;;;;-0.31;100.00;95363.72;5018093;28;20038;-75
2023/03/02 08:26:18;;;;;;;46.05;20.65;;;;;;;-0.22;100.00;95359.91;5010156;28;20041;-75
2023/03/02 08:28:45;;;;;;;42.75;18.95;;;;;;;-0.12;100.00;95366.44;5010841;28;20087;-75
2023/03/02 08:31:12;;;;;;;45.63;19.98;;;;;;;0.27;100.00;95367.25;5007004;28;20046;-75
2023/03/02 08:33:37;;;;;;;47.60;19.67;;;;;;;0.22;100.00;95370.47;5004588;28;20046;-75
2023/03/02 08:36:10;;;;;;;47.95;19.50;;;;;;;0.37;100.00;95377.94;5011487;28;20053;-74
2023/03/02 08:38:35;;;;;;;46.55;20.05;;;;;;;0.41;100.00;95373.94;5009448;28;20034;-74
2023/03/02 08:41:03;;;;;;;48.08;20.50;;;;;;;0.42;100.00;95360.00;5010055;28;20080;-73
2023/03/02 08:43:29;;;;;;;42.08;18.00;;;;;;;0.47;100.00;95362.75;5010796;28;20458;-74
2023/03/02 08:45:56;;;;;;;47.53;19.05;;;;;;;0.55;100.00;95364.31;5010356;28;20045;-74
2023/03/02 08:48:23;;;;;;;46.08;19.83;;;;;;;0.58;100.00;95352.75;5013226;28;20421;-74
2023/03/02 08:50:56;;;;;;;47.50;19.45;;;;;;;0.68;100.00;95363.44;5010841;28;20042;-74
2023/03/02 08:53:22;;;;;;;47.90;20.27;;;;;;;0.71;100.00;95360.41;5013086;28;20092;-74
2023/03/02 08:55:48;;;;;;;48.47;20.40;;;;;;;0.80;100.00;95361.72;5006585;28;20140;-74
2023/03/02 08:58:13;;;;;;;51.70;20.33;;;;;;;0.77;100.00;95362.16;5011289;28;20494;-74
2023/03/02 09:00:39;;;;;;;43.50;19.92;;;;;;;0.62;100.00;95353.91;5011068;28;20092;-74
2023/03/02 09:03:04;;;;;;;46.33;20.27;;;;;;;0.80;100.00;95361.72;5005083;28;20057;-74
2023/03/02 09:05:30;;;;;;;59.60;21.85;;;;;;;0.78;100.00;95363.75;5009710;28;20107;-74
2023/03/02 09:07:55;;;;;;;43.95;19.73;;;;;;;0.85;100.00;95361.91;5010418;28;20674;-75
2023/03/02 09:10:21;;;;;;;49.17;19.95;;;;;;;1.00;100.00;95376.34;5011706;28;20133;-75
2023/03/02 09:12:46;;;;;;;56.00;21.58;;;;;;;1.08;100.00;95360.53;5007854;28;20669;-75
2023/03/02 09:15:12;;;;;;;43.78;21.08;;;;;;;1.03;100.00;95361.16;5010536;28;20143;-75
2023/03/02 09:17:37;;;;;;;52.42;20.67;;;;;;;1.30;100.00;95357.53;5008917;28;20045;-74
2023/03/02 09:20:04;;;;;;;58.03;21.05;;;;;;;1.27;100.00;95357.97;5010181;28;20050;-75
2023/03/02 09:22:30;;;;;;;50.75;21.00;;;;;;;1.17;100.00;95359.22;5008205;28;20061;-75
2023/03/02 09:24:55;;;;;;;53.90;22.35;;;;;;;1.00;100.00;95365.97;5009275;28;20053;-74
2023/03/02 09:27:21;;;;;;;52.15;20.58;;;;;;;1.04;100.00;95361.94;5010660;28;20034;-75
2023/03/02 09:29:47;;;;;;;52.80;21.52;;;;;;;1.03;100.00;95370.72;5010268;28;20066;-75
2023/03/02 09:32:14;;;;;;;47.55;20.80;;;;;;;1.14;100.00;95357.06;5007058;28;20050;-75
2023/03/02 09:34:40;;;;;;;53.65;21.42;;;;;;;1.08;100.00;95357.13;5004367;28;20034;-75
2023/03/02 09:37:05;;;;;;;53.92;21.73;;;;;;;1.00;100.00;95371.16;5013334;28;20409;-75
2023/03/02 09:39:31;;;;;;;51.80;21.45;;;;;;;1.27;100.00;95370.94;5009224;28;20556;-75
2023/03/02 09:42:07;;;;;;;55.80;21.90;;;;;;;1.28;100.00;95368.13;5008804;28;20038;-75
2023/03/02 09:44:58;;;;;;;56.85;23.23;;;;;;;1.35;100.00;95357.66;5014342;28;20038;-75
2023/03/02 09:47:42;;;;;;;57.83;21.20;;;;;;;1.48;100.00;95362.75;5010062;28;20045;-75
2023/03/02 09:50:29;;;;;;;55.75;20.50;;;;;;;1.53;100.00;95362.88;5008357;28;20053;-75
2023/03/02 09:53:25;;;;;;;56.38;21.67;;;;;;;1.60;100.00;95365.41;5009795;28;20056;-75
2023/03/02 09:55:55;;;;;;;57.60;22.42;;;;;;;1.64;100.00;95370.94;5009800;28;20046;-75
2023/03/02 09:58:24;;;;;;;55.88;22.45;;;;;;;1.74;100.00;95366.06;5009062;28;20415;-75
2023/03/02 10:00:50;;;;;;;54.53;21.67;;;;;;;1.77;100.00;95355.25;5003111;28;20034;-76
2023/03/02 10:03:20;;;;;;;50.03;21.05;;;;;;;1.98;100.00;95371.38;5008616;28;20038;-75
2023/03/02 10:05:48;;;;;;;61.75;22.17;;;;;;;2.31;100.00;95370.16;5008745;28;21424;-75
2023/03/02 10:08:19;;;;;;;55.10;22.30;;;;;;;2.71;100.00;95364.41;5009615;28;20069;-75
2023/03/02 10:11:15;;;;;;;58.95;21.73;;;;;;;2.93;100.00;95373.28;5005349;28;20052;-75
2023/03/02 10:13:57;;;;;;;54.65;22.17;;;;;;;3.25;100.00;95359.94;5001754;28;20117;-75
2023/03/02 10:16:51;;;;;;;62.00;21.77;;;;;;;4.12;100.00;95362.75;5010675;28;20518;-75
2023/03/02 10:19:23;;;;;;;55.58;20.10;;;;;;;5.35;100.00;95359.56;5010332;28;20037;-75
2023/03/02 10:22:01;;;;;;;45.40;19.73;;;;;;;6.49;100.00;95363.53;5002061;28;20042;-74
2023/03/02 10:24:33;;;;;;;51.75;19.13;;;;;;;6.71;100.00;95359.06;5005981;28;20041;-75
2023/03/02 10:27:33;;;;;;;49.22;20.13;;;;;;;7.44;100.00;95361.19;5005452;28;20041;-75
2023/03/02 10:30:14;;;;;;;47.78;19.50;;;;;;;8.02;100.00;95355.19;4997880;28;20143;-76
2023/03/02 10:32:49;;;;;;;46.17;17.98;;;;;;;8.26;100.00;95365.19;5006112;28;20038;-76
2023/03/02 10:35:23;;;;;;;62.72;22.13;;;;;;;8.70;100.00;95364.81;5007153;28;20046;-75
2023/03/02 10:38:11;;;;;;;55.47;21.95;;;;;;;8.69;100.00;95363.22;5010759;28;20583;-75
2023/03/02 10:40:46;;;;;;;58.15;23.63;;;;;;;9.07;100.00;95358.53;5010926;28;20489;-76
2023/03/02 10:43:17;;;;;;;54.90;21.25;;;;;;;10.07;100.00;95353.63;5014013;28;20042;-76
2023/03/02 10:45:44;;;;;;;69.55;24.13;;;;;;;9.68;98.02;95351.63;5019260;28;20041;-76
2023/03/02 10:48:12;;;;;;;71.95;23.63;;;;;;;9.91;100.00;95354.72;5011655;28;20108;-76
2023/03/02 10:50:38;;;;;;;70.20;25.40;;;;;;;10.22;98.33;95356.16;5014107;28;20118;-75
2023/03/02 10:53:16;;;;;;;77.88;24.90;;;;;;;10.22;96.12;95356.16;5013475;28;20050;-75
2023/03/02 10:55:51;;;;;;;77.47;27.20;;;;;;;9.52;97.33;95364.81;5013210;28;20412;-75
2023/03/02 10:58:31;;;;;;;76.53;27.05;;;;;;;9.87;97.00;95357.88;5014522;28;20053;-75
2023/03/02 11:01:03;;;;;;;88.70;28.42;;;;;;;9.92;91.40;95351.03;5007624;28;20037;-75
2023/03/02 11:03:29;;;;;;;81.78;27.10;;;;;;;9.32;98.77;95360.38;5007162;28;20050;-75
2023/03/02 11:05:56;;;;;;;81.25;26.10;;;;;;;10.65;94.24;95354.91;5021827;28;20064;-75
2023/03/02 11:08:25;;;;;;;73.00;26.30;;;;;;;11.34;84.19;95347.78;5012347;28;20049;-75
2023/03/02 11:10:59;;;;;;;68.25;25.40;;;;;;;12.63;75.70;95343.69;5013200;28;20045;-75
2023/03/02 11:13:31;;;;;;;67.10;25.27;;;;;;;11.00;82.95;95342.56;5005994;28;20045;-74
2023/03/02 11:15:59;;;;;;;68.25;25.10;;;;;;;11.39;84.18;95354.84;5006204;28;20544;-75
2023/03/02 11:18:47;;;;;;;73.47;24.85;;;;;;;11.24;88.29;95350.53;5011913;28;20076;-74